createdAt,value
2017-01-01T00:00:10.672Z,-6.6
2017-01-01T00:00:29.321Z,-6.5
2017-01-01T00:00:47.988Z,-6.5
2017-01-01T00:01:06.645Z,-6.5
2017-01-01T00:01:25.292Z,-6.5
2017-01-01T00:01:43.936Z,-6.5
2017-01-01T00:02:02.590Z,-6.5
2017-01-01T00:02:21.280Z,-6.5
2017-01-01T00:02:39.924Z,-6.5
2017-01-01T00:02:58.574Z,-6.5
2017-01-01T00:03:17.220Z,-6.5
2017-01-01T00:03:35.865Z,-6.5
2017-01-01T00:03:54.515Z,-6.5
2017-01-01T00:04:13.159Z,-6.5
2017-01-01T00:04:31.806Z,-6.5
2017-01-01T00:04:50.445Z,-6.5
2017-01-01T00:05:09.102Z,-6.5
2017-01-01T00:05:27.785Z,-6.5
2017-01-01T00:05:46.430Z,-6.5
2017-01-01T00:06:05.068Z,-6.5
2017-01-01T00:06:23.732Z,-6.5
2017-01-01T00:06:42.378Z,-6.6
2017-01-01T00:07:01.024Z,-6.6
2017-01-01T00:07:19.676Z,-6.6
2017-01-01T00:07:38.322Z,-6.7
2017-01-01T00:07:56.975Z,-6.7
2017-01-01T00:08:15.630Z,-6.7
2017-01-01T00:08:34.285Z,-6.7
2017-01-01T00:08:52.948Z,-6.8
2017-01-01T00:09:11.603Z,-6.7
2017-01-01T00:09:30.246Z,-6.8
2017-01-01T00:09:48.893Z,-6.8
2017-01-01T00:10:07.551Z,-6.8
2017-01-01T00:10:26.234Z,-6.8
2017-01-01T00:10:44.890Z,-6.8
2017-01-01T00:11:03.536Z,-6.8
2017-01-01T00:11:22.196Z,-6.7
2017-01-01T00:11:40.849Z,-6.7
2017-01-01T00:11:59.503Z,-6.7
2017-01-01T00:12:18.150Z,-6.6
2017-01-01T00:12:36.800Z,-6.6
2017-01-01T00:12:55.442Z,-6.6
2017-01-01T00:13:14.084Z,-6.6
2017-01-01T00:13:32.770Z,-6.6
2017-01-01T00:13:51.414Z,-6.6
2017-01-01T00:14:10.062Z,-6.6
2017-01-01T00:14:28.707Z,-6.6
2017-01-01T00:14:47.348Z,-6.6
2017-01-01T00:15:05.996Z,-6.6
2017-01-01T00:15:24.641Z,-6.5
2017-01-01T00:15:43.289Z,-6.5
2017-01-01T00:16:01.938Z,-6.4
2017-01-01T00:16:20.584Z,-6.4
2017-01-01T00:16:39.231Z,-6.3
2017-01-01T00:16:57.937Z,-6.3
2017-01-01T00:17:16.580Z,-6.3
2017-01-01T00:17:35.223Z,-6.3
2017-01-01T00:17:53.878Z,-6.3
2017-01-01T00:18:12.538Z,-6.3
2017-01-01T00:18:31.216Z,-6.3
2017-01-01T00:18:49.857Z,-6.3
2017-01-01T00:19:08.508Z,-6.3
2017-01-01T00:19:27.153Z,-6.3
2017-01-01T00:19:45.802Z,-6.3
2017-01-01T00:20:04.442Z,-6.3
2017-01-01T00:20:23.087Z,-6.3
2017-01-01T00:20:41.730Z,-6.2
2017-01-01T00:21:00.382Z,-6.2
2017-01-01T00:21:19.032Z,-6.2
2017-01-01T00:21:37.703Z,-6.1
2017-01-01T00:21:56.350Z,-6.1
2017-01-01T00:22:15.014Z,-6.1
2017-01-01T00:22:33.666Z,-6.1
2017-01-01T00:22:52.308Z,-6.1
2017-01-01T00:23:10.956Z,-6.1
2017-01-01T00:23:29.602Z,-6.1
2017-01-01T00:23:48.245Z,-6.1
2017-01-01T00:24:06.887Z,-6.1
2017-01-01T00:24:25.539Z,-6.1
2017-01-01T00:24:44.190Z,-6.1
2017-01-01T00:25:02.874Z,-6.1
2017-01-01T00:25:21.526Z,-6.1
2017-01-01T00:25:40.175Z,-6.1
2017-01-01T00:25:58.821Z,-6.2
2017-01-01T00:26:17.483Z,-6.2
2017-01-01T00:26:36.189Z,-6.2
2017-01-01T00:26:54.836Z,-6.3
2017-01-01T00:27:13.484Z,-6.3
2017-01-01T00:27:32.136Z,-6.4
2017-01-01T00:27:50.784Z,-6.4
2017-01-01T00:28:09.426Z,-6.4
2017-01-01T00:28:28.089Z,-6.4
2017-01-01T00:28:46.732Z,-6.5
2017-01-01T00:29:05.377Z,-6.5
2017-01-01T00:29:24.019Z,-6.5
2017-01-01T00:29:42.688Z,-6.5
2017-01-01T00:30:01.339Z,-6.5
2017-01-01T00:30:19.994Z,-6.5
2017-01-01T00:30:38.638Z,-6.5
2017-01-01T00:30:57.278Z,-6.5
2017-01-01T00:31:15.924Z,-6.5
2017-01-01T00:31:34.572Z,-6.5
2017-01-01T00:31:53.227Z,-6.5
2017-01-01T00:32:11.872Z,-6.5
2017-01-01T00:32:30.512Z,-6.5
2017-01-01T00:32:49.173Z,-6.4
2017-01-01T00:33:07.839Z,-6.4
2017-01-01T00:33:26.486Z,-6.4
2017-01-01T00:33:45.133Z,-6.4
2017-01-01T00:34:03.787Z,-6.4
2017-01-01T00:34:22.451Z,-6.4
2017-01-01T00:34:41.134Z,-6.4
2017-01-01T00:34:59.778Z,-6.4
2017-01-01T00:35:18.431Z,-6.5
2017-01-01T00:35:37.078Z,-6.5
2017-01-01T00:35:55.753Z,-6.6
2017-01-01T00:36:14.400Z,-6.6
2017-01-01T00:36:33.053Z,-6.7
2017-01-01T00:36:51.738Z,-6.8
2017-01-01T00:37:10.386Z,-6.8
2017-01-01T00:37:29.028Z,-6.9
2017-01-01T00:37:47.702Z,-6.9
2017-01-01T00:38:06.361Z,-6.9
2017-01-01T00:38:25.008Z,-6.9
2017-01-01T00:38:43.653Z,-6.9
2017-01-01T00:39:02.290Z,-6.9
2017-01-01T00:39:20.938Z,-6.9
2017-01-01T00:39:39.583Z,-6.9
2017-01-01T00:39:58.234Z,-7
2017-01-01T00:40:16.880Z,-7
2017-01-01T00:40:35.524Z,-7
2017-01-01T00:40:54.168Z,-7
2017-01-01T00:41:12.829Z,-7
2017-01-01T00:41:31.475Z,-7
2017-01-01T00:41:50.121Z,-7
2017-01-01T00:42:08.773Z,-7
2017-01-01T00:42:27.432Z,-7
2017-01-01T00:42:46.105Z,-7
2017-01-01T00:43:04.744Z,-7
2017-01-01T00:43:23.399Z,-7
2017-01-01T00:43:42.045Z,-7
2017-01-01T00:44:00.700Z,-7
2017-01-01T00:44:19.350Z,-7
2017-01-01T00:44:38.026Z,-7
2017-01-01T00:44:56.672Z,-7
2017-01-01T00:45:15.321Z,-6.9
2017-01-01T00:45:33.971Z,-6.9
2017-01-01T00:45:52.646Z,-6.9
2017-01-01T00:46:11.292Z,-6.9
2017-01-01T00:46:29.934Z,-6.8
2017-01-01T00:46:48.585Z,-6.8
2017-01-01T00:47:07.229Z,-6.8
2017-01-01T00:47:25.874Z,-6.8
2017-01-01T00:47:44.517Z,-6.8
2017-01-01T00:48:03.164Z,-6.8
2017-01-01T00:48:21.812Z,-6.8
2017-01-01T00:48:40.471Z,-6.9
2017-01-01T00:48:59.111Z,-6.9
2017-01-01T00:49:17.774Z,-6.9
2017-01-01T00:49:36.424Z,-6.9
2017-01-01T00:49:55.068Z,-6.9
2017-01-01T00:50:13.714Z,-6.9
2017-01-01T00:50:32.361Z,-6.8
2017-01-01T00:50:51.068Z,-6.8
2017-01-01T00:51:09.715Z,-6.8
2017-01-01T00:51:28.361Z,-6.8
2017-01-01T00:51:47.003Z,-6.8
2017-01-01T00:52:05.654Z,-6.8
2017-01-01T00:52:24.300Z,-6.8
2017-01-01T00:52:42.943Z,-6.8
2017-01-01T00:53:01.581Z,-6.8
2017-01-01T00:53:20.227Z,-6.8
2017-01-01T00:53:38.879Z,-6.8
2017-01-01T00:53:57.574Z,-6.8
2017-01-01T00:54:16.217Z,-6.8
2017-01-01T00:54:34.861Z,-6.8
2017-01-01T00:54:53.509Z,-6.8
2017-01-01T00:55:12.160Z,-6.8
2017-01-01T00:55:30.809Z,-6.7
2017-01-01T00:55:49.450Z,-6.7
2017-01-01T00:56:08.096Z,-6.7
2017-01-01T00:56:26.745Z,-6.7
2017-01-01T00:56:45.397Z,-6.7
2017-01-01T00:57:04.047Z,-6.7
2017-01-01T00:57:22.722Z,-6.7
2017-01-01T00:57:41.367Z,-6.7
2017-01-01T00:58:00.014Z,-6.7
2017-01-01T00:58:18.661Z,-6.7
2017-01-01T00:58:37.303Z,-6.7
2017-01-01T00:58:56.001Z,-6.7
2017-01-01T00:59:14.674Z,-6.7
2017-01-01T00:59:33.319Z,-6.6
2017-01-01T00:59:51.959Z,-6.6
2017-01-01T01:00:10.608Z,-6.6
2017-01-01T01:00:29.257Z,-6.6
2017-01-01T01:00:47.902Z,-6.6
2017-01-01T01:01:06.546Z,-6.7
2017-01-01T01:01:25.186Z,-6.7
2017-01-01T01:01:43.839Z,-6.8
2017-01-01T01:02:02.527Z,-6.8
2017-01-01T01:02:21.176Z,-6.8
2017-01-01T01:02:39.816Z,-6.9
2017-01-01T01:02:58.463Z,-6.9
2017-01-01T01:03:17.110Z,-6.9
2017-01-01T01:03:35.768Z,-7
2017-01-01T01:03:54.406Z,-7
2017-01-01T01:04:13.056Z,-7
2017-01-01T01:04:31.725Z,-7
2017-01-01T01:04:50.374Z,-7
2017-01-01T01:05:09.027Z,-6.9
2017-01-01T01:05:27.699Z,-6.9
2017-01-01T01:05:46.346Z,-6.9
2017-01-01T01:06:04.997Z,-6.9
2017-01-01T01:06:23.642Z,-6.8
2017-01-01T01:06:42.282Z,-6.9
2017-01-01T01:07:00.977Z,-6.9
2017-01-01T01:07:19.634Z,-6.9
2017-01-01T01:07:38.278Z,-6.9
2017-01-01T01:07:56.920Z,-6.9
2017-01-01T01:08:15.573Z,-6.9
2017-01-01T01:08:34.228Z,-6.9
2017-01-01T01:08:52.873Z,-6.9
2017-01-01T01:09:11.515Z,-6.9
2017-01-01T01:09:30.162Z,-6.9
2017-01-01T01:09:48.838Z,-6.9
2017-01-01T01:10:07.525Z,-7
2017-01-01T01:10:26.172Z,-6.9
2017-01-01T01:10:44.812Z,-6.9
2017-01-01T01:11:03.464Z,-6.9
2017-01-01T01:11:22.105Z,-7
2017-01-01T01:11:40.750Z,-7
2017-01-01T01:11:59.398Z,-6.9
2017-01-01T01:12:18.058Z,-7
2017-01-01T01:12:36.704Z,-7
2017-01-01T01:12:55.350Z,-7
2017-01-01T01:13:13.998Z,-7
2017-01-01T01:13:32.657Z,-7
2017-01-01T01:13:51.306Z,-7.1
2017-01-01T01:14:09.960Z,-7.1
2017-01-01T01:14:28.605Z,-7.1
2017-01-01T01:14:47.264Z,-7.1
2017-01-01T01:15:05.977Z,-7.2
2017-01-01T01:15:24.622Z,-7.2
2017-01-01T01:15:43.267Z,-7.2
2017-01-01T01:16:01.920Z,-7.2
2017-01-01T01:16:20.564Z,-7.2
2017-01-01T01:16:39.213Z,-7.2
2017-01-01T01:16:57.857Z,-7.2
2017-01-01T01:17:16.500Z,-7.2
2017-01-01T01:17:35.151Z,-7.2
2017-01-01T01:17:53.790Z,-7.2
2017-01-01T01:18:12.477Z,-7.3
2017-01-01T01:18:31.125Z,-7.3
2017-01-01T01:18:49.771Z,-7.3
2017-01-01T01:19:08.417Z,-7.4
2017-01-01T01:19:27.056Z,-7.4
2017-01-01T01:19:45.703Z,-7.4
2017-01-01T01:20:04.352Z,-7.4
2017-01-01T01:20:23.030Z,-7.4
2017-01-01T01:20:41.676Z,-7.4
2017-01-01T01:21:00.335Z,-7.4
2017-01-01T01:21:18.980Z,-7.4
2017-01-01T01:21:37.643Z,-7.3
2017-01-01T01:21:56.290Z,-7.3
2017-01-01T01:22:14.929Z,-7.3
2017-01-01T01:22:33.574Z,-7.3
2017-01-01T01:22:52.232Z,-7.3
2017-01-01T01:23:10.922Z,-7.3
2017-01-01T01:23:29.568Z,-7.3
2017-01-01T01:23:48.221Z,-7.2
2017-01-01T01:24:06.864Z,-7.2
2017-01-01T01:24:25.515Z,-7.2
2017-01-01T01:24:44.162Z,-7.1
2017-01-01T01:25:02.802Z,-7.1
2017-01-01T01:25:21.454Z,-7.1
2017-01-01T01:25:40.234Z,-7
2017-01-01T01:25:58.880Z,-7
2017-01-01T01:26:17.552Z,-7
2017-01-01T01:26:36.201Z,-7
2017-01-01T01:26:54.846Z,-7
2017-01-01T01:27:13.495Z,-7
2017-01-01T01:27:32.143Z,-6.9
2017-01-01T01:27:50.845Z,-6.9
2017-01-01T01:28:09.498Z,-6.8
2017-01-01T01:28:28.144Z,-6.8
2017-01-01T01:28:46.782Z,-6.8
2017-01-01T01:29:05.431Z,-6.7
2017-01-01T01:29:24.084Z,-6.7
2017-01-01T01:29:42.727Z,-6.7
2017-01-01T01:30:01.375Z,-6.7
2017-01-01T01:30:20.016Z,-6.7
2017-01-01T01:30:38.672Z,-6.7
2017-01-01T01:30:57.372Z,-6.7
2017-01-01T01:31:16.021Z,-6.7
2017-01-01T01:31:34.667Z,-6.7
2017-01-01T01:31:53.315Z,-6.7
2017-01-01T01:32:11.962Z,-6.7
2017-01-01T01:32:30.608Z,-6.7
2017-01-01T01:32:49.263Z,-6.6
2017-01-01T01:33:07.907Z,-6.6
2017-01-01T01:33:26.558Z,-6.6
2017-01-01T01:33:45.204Z,-6.6
2017-01-01T01:34:03.852Z,-6.6
2017-01-01T01:34:22.529Z,-6.5
2017-01-01T01:34:41.175Z,-6.5
2017-01-01T01:34:59.820Z,-6.5
2017-01-01T01:35:18.464Z,-6.6
2017-01-01T01:35:37.108Z,-6.6
2017-01-01T01:35:55.796Z,-6.6
2017-01-01T01:36:14.467Z,-6.6
2017-01-01T01:36:33.118Z,-6.6
2017-01-01T01:36:51.766Z,-6.6
2017-01-01T01:37:10.410Z,-6.6
2017-01-01T01:37:29.063Z,-6.6
2017-01-01T01:37:47.708Z,-6.6
2017-01-01T01:38:06.354Z,-6.6
2017-01-01T01:38:25.033Z,-6.6
2017-01-01T01:38:43.686Z,-6.6
2017-01-01T01:39:02.369Z,-6.6
2017-01-01T01:39:21.015Z,-6.6
2017-01-01T01:39:39.655Z,-6.6
2017-01-01T01:39:58.305Z,-6.6
2017-01-01T01:40:16.951Z,-6.6
2017-01-01T01:40:35.597Z,-6.6
2017-01-01T01:40:54.242Z,-6.6
2017-01-01T01:41:12.883Z,-6.6
2017-01-01T01:41:31.545Z,-6.6
2017-01-01T01:41:50.209Z,-6.6
2017-01-01T01:42:08.853Z,-6.6
2017-01-01T01:42:27.521Z,-6.6
2017-01-01T01:42:46.179Z,-6.6
2017-01-01T01:43:04.829Z,-6.6
2017-01-01T01:43:23.479Z,-6.7
2017-01-01T01:43:42.137Z,-6.7
2017-01-01T01:44:00.821Z,-6.7
2017-01-01T01:44:19.476Z,-6.7
2017-01-01T01:44:38.125Z,-6.7
2017-01-01T01:44:56.769Z,-6.6
2017-01-01T01:45:15.408Z,-6.7
2017-01-01T01:45:34.064Z,-6.7
2017-01-01T01:45:52.710Z,-6.7
2017-01-01T01:46:11.357Z,-6.7
2017-01-01T01:46:30.002Z,-6.7
2017-01-01T01:46:48.673Z,-6.7
2017-01-01T01:47:07.349Z,-6.6
2017-01-01T01:47:25.994Z,-6.5
2017-01-01T01:47:44.640Z,-6.4
2017-01-01T01:48:03.283Z,-6.4
2017-01-01T01:48:21.928Z,-6.3
2017-01-01T01:48:40.577Z,-6.3
2017-01-01T01:48:59.226Z,-6.3
2017-01-01T01:49:17.873Z,-6.3
2017-01-01T01:49:36.519Z,-6.3
2017-01-01T01:49:55.178Z,-6.3
2017-01-01T01:50:13.830Z,-6.3
2017-01-01T01:50:32.508Z,-6.2
2017-01-01T01:50:51.155Z,-6.2
2017-01-01T01:51:09.804Z,-6.2
2017-01-01T01:51:28.451Z,-6.1
2017-01-01T01:51:47.111Z,-6.1
2017-01-01T01:52:05.815Z,-6.1
2017-01-01T01:52:24.461Z,-6.2
2017-01-01T01:52:43.108Z,-6.2
2017-01-01T01:53:01.788Z,-6.2
2017-01-01T01:53:20.448Z,-6.2
2017-01-01T01:53:39.087Z,-6.2
2017-01-01T01:53:57.737Z,-6.2
2017-01-01T01:54:16.386Z,-6.2
2017-01-01T01:54:35.057Z,-6.3
2017-01-01T01:54:53.706Z,-6.3
2017-01-01T01:55:12.390Z,-6.3
2017-01-01T01:55:31.042Z,-6.3
2017-01-01T01:55:49.694Z,-6.4
2017-01-01T01:56:08.333Z,-6.4
2017-01-01T01:56:26.982Z,-6.5
2017-01-01T01:56:45.627Z,-6.5
2017-01-01T01:57:04.276Z,-6.5
2017-01-01T01:57:22.939Z,-6.5
2017-01-01T01:57:41.589Z,-6.5
2017-01-01T01:58:00.237Z,-6.5
2017-01-01T01:58:18.887Z,-6.6
2017-01-01T01:58:37.538Z,-6.6
2017-01-01T01:58:56.181Z,-6.6
2017-01-01T01:59:14.832Z,-6.6
2017-01-01T01:59:33.491Z,-6.6
2017-01-01T01:59:52.158Z,-6.6
2017-01-01T02:00:10.799Z,-6.6
2017-01-01T02:00:29.439Z,-6.6
2017-01-01T02:00:48.087Z,-6.7
2017-01-01T02:01:06.734Z,-6.7
2017-01-01T02:01:25.384Z,-6.8
2017-01-01T02:01:44.022Z,-6.8
2017-01-01T02:02:02.669Z,-6.9
2017-01-01T02:02:21.322Z,-6.9
2017-01-01T02:02:39.972Z,-6.9
2017-01-01T02:02:58.627Z,-6.9
2017-01-01T02:03:17.299Z,-6.9
2017-01-01T02:03:35.948Z,-7
2017-01-01T02:03:54.593Z,-7
2017-01-01T02:04:13.240Z,-7
2017-01-01T02:04:31.882Z,-7
2017-01-01T02:04:50.522Z,-7
2017-01-01T02:05:09.180Z,-7
2017-01-01T02:05:27.829Z,-7.1
2017-01-01T02:05:46.474Z,-7.1
2017-01-01T02:06:05.114Z,-7.1
2017-01-01T02:06:23.769Z,-7.1
2017-01-01T02:06:42.453Z,-7.1
2017-01-01T02:07:01.097Z,-7
2017-01-01T02:07:19.740Z,-7
2017-01-01T02:07:38.387Z,-7
2017-01-01T02:07:57.071Z,-6.9
2017-01-01T02:08:15.734Z,-6.9
2017-01-01T02:08:34.377Z,-6.9
2017-01-01T02:08:53.027Z,-6.8
2017-01-01T02:09:11.675Z,-6.8
2017-01-01T02:09:30.326Z,-6.8
2017-01-01T02:09:48.969Z,-6.7
2017-01-01T02:10:07.614Z,-6.7
2017-01-01T02:10:26.264Z,-6.6
2017-01-01T02:10:44.921Z,-6.6
2017-01-01T02:11:03.574Z,-6.5
2017-01-01T02:11:22.246Z,-6.5
2017-01-01T02:11:40.903Z,-6.4
2017-01-01T02:11:59.576Z,-6.4
2017-01-01T02:12:18.225Z,-6.3
2017-01-01T02:12:36.868Z,-6.3
2017-01-01T02:12:55.517Z,-6.3
2017-01-01T02:13:14.177Z,-6.3
2017-01-01T02:13:32.829Z,-6.3
2017-01-01T02:13:51.480Z,-6.3
2017-01-01T02:14:10.123Z,-6.2
2017-01-01T02:14:28.769Z,-6.2
2017-01-01T02:14:47.428Z,-6.2
2017-01-01T02:15:06.069Z,-6.1
2017-01-01T02:15:24.715Z,-6.1
2017-01-01T02:15:43.371Z,-6
2017-01-01T02:16:02.036Z,-6
2017-01-01T02:16:20.705Z,-5.9
2017-01-01T02:16:39.348Z,-5.9
2017-01-01T02:16:57.999Z,-5.9
2017-01-01T02:17:16.654Z,-5.9
2017-01-01T02:17:35.312Z,-5.8
2017-01-01T02:17:53.952Z,-5.8
2017-01-01T02:18:12.604Z,-5.8
2017-01-01T02:18:31.265Z,-5.7
2017-01-01T02:18:49.911Z,-5.7
2017-01-01T02:19:08.563Z,-5.7
2017-01-01T02:19:27.236Z,-5.7
2017-01-01T02:19:45.888Z,-5.6
2017-01-01T02:20:04.536Z,-5.6
2017-01-01T02:20:23.183Z,-5.6
2017-01-01T02:20:41.826Z,-5.6
2017-01-01T02:21:00.477Z,-5.6
2017-01-01T02:21:19.129Z,-5.6
2017-01-01T02:21:37.775Z,-5.5
2017-01-01T02:21:56.423Z,-5.4
2017-01-01T02:22:15.067Z,-5.3
2017-01-01T02:22:33.720Z,-5.2
2017-01-01T02:22:52.383Z,-5.2
2017-01-01T02:23:11.029Z,-5.1
2017-01-01T02:23:29.670Z,-5
2017-01-01T02:23:48.360Z,-4.9
2017-01-01T02:24:07.030Z,-4.9
2017-01-01T02:24:25.683Z,-4.9
2017-01-01T02:24:44.327Z,-4.8
2017-01-01T02:25:02.984Z,-4.8
2017-01-01T02:25:21.630Z,-4.8
2017-01-01T02:25:40.278Z,-4.8
2017-01-01T02:25:58.932Z,-4.8
2017-01-01T02:26:17.586Z,-4.7
2017-01-01T02:26:36.229Z,-4.6
2017-01-01T02:26:54.875Z,-4.5
2017-01-01T02:27:13.523Z,-4.3
2017-01-01T02:27:32.191Z,-4.2
2017-01-01T02:27:50.836Z,-4.1
2017-01-01T02:28:09.486Z,-4
2017-01-01T02:28:28.154Z,-3.9
2017-01-01T02:28:46.798Z,-3.8
2017-01-01T02:29:05.447Z,-3.7
2017-01-01T02:29:24.094Z,-3.6
2017-01-01T02:29:42.741Z,-3.5
2017-01-01T02:30:01.390Z,-3.4
2017-01-01T02:30:20.036Z,-3.4
2017-01-01T02:30:38.687Z,-3.3
2017-01-01T02:30:57.345Z,-3.3
2017-01-01T02:31:15.993Z,-3.3
2017-01-01T02:31:34.636Z,-3.3
2017-01-01T02:31:53.280Z,-3.4
2017-01-01T02:32:11.940Z,-3.5
2017-01-01T02:32:30.621Z,-3.5
2017-01-01T02:32:49.272Z,-3.6
2017-01-01T02:33:07.915Z,-3.6
2017-01-01T02:33:26.568Z,-3.5
2017-01-01T02:33:45.218Z,-3.4
2017-01-01T02:34:03.865Z,-3.4
2017-01-01T02:34:22.530Z,-3.4
2017-01-01T02:34:41.177Z,-3.3
2017-01-01T02:34:59.828Z,-3.3
2017-01-01T02:35:18.483Z,-3.3
2017-01-01T02:35:37.159Z,-3.3
2017-01-01T02:35:55.805Z,-3.3
2017-01-01T02:36:14.456Z,-3.3
2017-01-01T02:36:33.100Z,-3.3
2017-01-01T02:36:51.743Z,-3.3
2017-01-01T02:37:10.383Z,-3.3
2017-01-01T02:37:29.023Z,-3.2
2017-01-01T02:37:47.677Z,-3.2
2017-01-01T02:38:06.329Z,-3.2
2017-01-01T02:38:24.975Z,-3.3
2017-01-01T02:38:43.630Z,-3.4
2017-01-01T02:39:02.295Z,-3.6
2017-01-01T02:39:20.948Z,-3.7
2017-01-01T02:39:39.616Z,-3.8
2017-01-01T02:39:58.260Z,-4
2017-01-01T02:40:16.918Z,-4
2017-01-01T02:40:35.603Z,-3.9
2017-01-01T02:40:54.248Z,-3.9
2017-01-01T02:41:12.895Z,-3.8
2017-01-01T02:41:31.539Z,-3.7
2017-01-01T02:41:50.185Z,-3.6
2017-01-01T02:42:08.828Z,-3.6
2017-01-01T02:42:27.475Z,-3.5
2017-01-01T02:42:46.115Z,-3.3
2017-01-01T02:43:04.761Z,-3.2
2017-01-01T02:43:23.405Z,-3.2
2017-01-01T02:43:42.103Z,-3.1
2017-01-01T02:44:00.749Z,-3
2017-01-01T02:44:19.395Z,-2.9
2017-01-01T02:44:38.041Z,-2.8
2017-01-01T02:44:56.689Z,-2.8
2017-01-01T02:45:15.335Z,-2.7
2017-01-01T02:45:33.976Z,-2.7
2017-01-01T02:45:52.637Z,-2.6
2017-01-01T02:46:11.300Z,-2.6
2017-01-01T02:46:29.949Z,-2.5
2017-01-01T02:46:48.595Z,-2.5
2017-01-01T02:47:07.258Z,-2.4
2017-01-01T02:47:25.900Z,-2.4
2017-01-01T02:47:44.555Z,-2.5
2017-01-01T02:48:03.201Z,-2.5
2017-01-01T02:48:21.842Z,-2.4
2017-01-01T02:48:40.553Z,-2.4
2017-01-01T02:48:59.200Z,-2.4
2017-01-01T02:49:17.845Z,-2.3
2017-01-01T02:49:36.484Z,-2.3
2017-01-01T02:49:55.138Z,-2.2
2017-01-01T02:50:13.817Z,-2.2
2017-01-01T02:50:32.468Z,-2.2
2017-01-01T02:50:51.113Z,-2.1
2017-01-01T02:51:09.755Z,-2
2017-01-01T02:51:28.406Z,-2
2017-01-01T02:51:47.080Z,-2
2017-01-01T02:52:05.729Z,-2.1
2017-01-01T02:52:24.373Z,-2.1
2017-01-01T02:52:43.018Z,-2
2017-01-01T02:53:01.661Z,-2
2017-01-01T02:53:20.305Z,-2
2017-01-01T02:53:38.950Z,-2
2017-01-01T02:53:57.596Z,-2
2017-01-01T02:54:16.248Z,-1.9
2017-01-01T02:54:34.899Z,-1.9
2017-01-01T02:54:53.552Z,-1.8
2017-01-01T02:55:12.227Z,-1.8
2017-01-01T02:55:30.880Z,-1.8
2017-01-01T02:55:49.528Z,-1.8
2017-01-01T02:56:08.177Z,-1.7
2017-01-01T02:56:26.827Z,-1.7
2017-01-01T02:56:45.514Z,-1.7
2017-01-01T02:57:04.166Z,-1.7
2017-01-01T02:57:22.814Z,-1.7
2017-01-01T02:57:41.462Z,-1.6
2017-01-01T02:58:00.109Z,-1.6
2017-01-01T02:58:18.754Z,-1.6
2017-01-01T02:58:37.403Z,-1.6
2017-01-01T02:58:56.064Z,-1.6
2017-01-01T02:59:14.712Z,-1.6
2017-01-01T02:59:33.356Z,-1.6
2017-01-01T02:59:52.024Z,-1.6
2017-01-01T03:00:10.668Z,-1.6
2017-01-01T03:00:29.314Z,-1.6
2017-01-01T03:00:47.983Z,-1.6
2017-01-01T03:01:06.627Z,-1.6
2017-01-01T03:01:25.275Z,-1.6
2017-01-01T03:01:43.924Z,-1.6
2017-01-01T03:02:02.572Z,-1.6
2017-01-01T03:02:21.219Z,-1.7
2017-01-01T03:02:39.860Z,-1.7
2017-01-01T03:02:58.503Z,-1.7
2017-01-01T03:03:17.179Z,-1.7
2017-01-01T03:03:35.827Z,-1.7
2017-01-01T03:03:54.472Z,-1.7
2017-01-01T03:04:13.123Z,-1.7
2017-01-01T03:04:31.773Z,-1.7
2017-01-01T03:04:50.456Z,-1.7
2017-01-01T03:05:09.100Z,-1.7
2017-01-01T03:05:27.763Z,-1.7
2017-01-01T03:05:46.412Z,-1.7
2017-01-01T03:06:05.066Z,-1.8
2017-01-01T03:06:23.711Z,-1.8
2017-01-01T03:06:42.358Z,-1.8
2017-01-01T03:07:01.006Z,-1.7
2017-01-01T03:07:19.655Z,-1.7
2017-01-01T03:07:38.303Z,-1.7
2017-01-01T03:07:56.975Z,-1.7
2017-01-01T03:08:15.627Z,-1.7
2017-01-01T03:08:34.273Z,-1.7
2017-01-01T03:08:52.921Z,-1.7
2017-01-01T03:09:11.563Z,-1.7
2017-01-01T03:09:30.220Z,-1.7
2017-01-01T03:09:48.869Z,-1.7
2017-01-01T03:10:07.548Z,-1.7
2017-01-01T03:10:26.191Z,-1.7
2017-01-01T03:10:44.835Z,-1.7
2017-01-01T03:11:03.484Z,-1.8
2017-01-01T03:11:22.172Z,-1.8
2017-01-01T03:11:40.816Z,-1.9
2017-01-01T03:11:59.458Z,-1.9
2017-01-01T03:12:18.105Z,-1.9
2017-01-01T03:12:36.761Z,-2
2017-01-01T03:12:55.449Z,-2.1
2017-01-01T03:13:14.099Z,-2.1
2017-01-01T03:13:32.751Z,-2.1
2017-01-01T03:13:51.397Z,-2.1
2017-01-01T03:14:10.067Z,-2.1
2017-01-01T03:14:28.707Z,-2.1
2017-01-01T03:14:47.359Z,-2.1
2017-01-01T03:15:06.004Z,-2.2
2017-01-01T03:15:24.649Z,-2.2
2017-01-01T03:15:43.289Z,-2.3
2017-01-01T03:16:01.964Z,-2.4
2017-01-01T03:16:20.612Z,-2.5
2017-01-01T03:16:39.275Z,-2.6
2017-01-01T03:16:57.914Z,-2.5
2017-01-01T03:17:16.557Z,-2.5
2017-01-01T03:17:35.207Z,-2.5
2017-01-01T03:17:53.851Z,-2.5
2017-01-01T03:18:12.502Z,-2.5
2017-01-01T03:18:31.145Z,-2.5
2017-01-01T03:18:49.786Z,-2.4
2017-01-01T03:19:08.433Z,-2.4
2017-01-01T03:19:27.117Z,-2.4
2017-01-01T03:19:45.762Z,-2.3
2017-01-01T03:20:04.404Z,-2.3
2017-01-01T03:20:23.058Z,-2.2
2017-01-01T03:20:41.702Z,-2.2
2017-01-01T03:21:00.399Z,-2.2
2017-01-01T03:21:19.048Z,-2.2
2017-01-01T03:21:37.695Z,-2.2
2017-01-01T03:21:56.352Z,-2.2
2017-01-01T03:22:15.004Z,-2.2
2017-01-01T03:22:33.648Z,-2.2
2017-01-01T03:22:52.291Z,-2.2
2017-01-01T03:23:10.942Z,-2.2
2017-01-01T03:23:29.595Z,-2.2
2017-01-01T03:23:48.246Z,-2.2
2017-01-01T03:24:06.919Z,-2.2
2017-01-01T03:24:25.572Z,-2.1
2017-01-01T03:24:44.218Z,-2.1
2017-01-01T03:25:02.865Z,-2
2017-01-01T03:25:21.507Z,-2
2017-01-01T03:25:40.154Z,-2
2017-01-01T03:25:58.796Z,-2
2017-01-01T03:26:17.448Z,-1.9
2017-01-01T03:26:36.092Z,-1.9
2017-01-01T03:26:54.739Z,-1.9
2017-01-01T03:27:13.419Z,-2
2017-01-01T03:27:32.084Z,-2
2017-01-01T03:27:50.730Z,-2
2017-01-01T03:28:09.378Z,-2.1
2017-01-01T03:28:28.032Z,-2.1
2017-01-01T03:28:46.692Z,-2.2
2017-01-01T03:29:05.375Z,-2.2
2017-01-01T03:29:24.024Z,-2.2
2017-01-01T03:29:42.668Z,-2.2
2017-01-01T03:30:01.320Z,-2.1
2017-01-01T03:30:19.965Z,-2.1
2017-01-01T03:30:38.613Z,-2.1
2017-01-01T03:30:57.255Z,-2.1
2017-01-01T03:31:15.897Z,-2
2017-01-01T03:31:34.548Z,-2
2017-01-01T03:31:53.206Z,-2
2017-01-01T03:32:11.878Z,-1.9
2017-01-01T03:32:30.539Z,-1.8
2017-01-01T03:32:49.187Z,-1.8
2017-01-01T03:33:07.831Z,-1.9
2017-01-01T03:33:26.474Z,-1.9
2017-01-01T03:33:45.121Z,-1.9
2017-01-01T03:34:03.760Z,-2
2017-01-01T03:34:22.404Z,-2
2017-01-01T03:34:41.049Z,-2
2017-01-01T03:34:59.704Z,-2.1
2017-01-01T03:35:18.345Z,-2.2
2017-01-01T03:35:37.018Z,-2.2
2017-01-01T03:35:55.665Z,-2.3
2017-01-01T03:36:14.311Z,-2.3
2017-01-01T03:36:32.956Z,-2.3
2017-01-01T03:36:51.595Z,-2.4
2017-01-01T03:37:10.301Z,-2.5
2017-01-01T03:37:28.946Z,-2.5
2017-01-01T03:37:47.604Z,-2.6
2017-01-01T03:38:06.245Z,-2.6
2017-01-01T03:38:24.901Z,-2.7
2017-01-01T03:38:43.548Z,-2.8
2017-01-01T03:39:02.194Z,-2.8
2017-01-01T03:39:20.840Z,-2.8
2017-01-01T03:39:39.486Z,-2.9
2017-01-01T03:39:58.132Z,-3
2017-01-01T03:40:16.806Z,-3
2017-01-01T03:40:35.445Z,-3.1
2017-01-01T03:40:54.088Z,-3.1
2017-01-01T03:41:12.734Z,-3.2
2017-01-01T03:41:31.376Z,-3.2
2017-01-01T03:41:50.027Z,-3.3
2017-01-01T03:42:08.669Z,-3.3
2017-01-01T03:42:27.323Z,-3.3
2017-01-01T03:42:45.966Z,-3.4
2017-01-01T03:43:04.630Z,-3.4
2017-01-01T03:43:23.269Z,-3.4
2017-01-01T03:43:41.942Z,-3.4
2017-01-01T03:44:00.599Z,-3.5
2017-01-01T03:44:19.252Z,-3.5
2017-01-01T03:44:37.904Z,-3.4
2017-01-01T03:44:56.546Z,-3.4
2017-01-01T03:45:15.237Z,-3.4
2017-01-01T03:45:33.880Z,-3.4
2017-01-01T03:45:52.532Z,-3.4
2017-01-01T03:46:11.175Z,-3.4
2017-01-01T03:46:29.820Z,-3.4
2017-01-01T03:46:48.465Z,-3.4
2017-01-01T03:47:07.117Z,-3.5
2017-01-01T03:47:25.767Z,-3.5
2017-01-01T03:47:44.407Z,-3.5
2017-01-01T03:48:03.052Z,-3.5
2017-01-01T03:48:21.747Z,-3.5
2017-01-01T03:48:40.401Z,-3.5
2017-01-01T03:48:59.048Z,-3.5
2017-01-01T03:49:17.691Z,-3.6
2017-01-01T03:49:36.343Z,-3.6
2017-01-01T03:49:54.994Z,-3.6
2017-01-01T03:50:13.640Z,-3.6
2017-01-01T03:50:32.280Z,-3.7
2017-01-01T03:50:50.922Z,-3.7
2017-01-01T03:51:09.567Z,-3.7
2017-01-01T03:51:28.217Z,-3.8
2017-01-01T03:51:46.893Z,-3.8
2017-01-01T03:52:05.540Z,-3.8
2017-01-01T03:52:24.191Z,-3.8
2017-01-01T03:52:42.837Z,-3.8
2017-01-01T03:53:01.493Z,-3.8
2017-01-01T03:53:20.164Z,-3.8
2017-01-01T03:53:38.821Z,-3.8
2017-01-01T03:53:57.468Z,-3.8
2017-01-01T03:54:16.113Z,-3.8
2017-01-01T03:54:34.754Z,-3.8
2017-01-01T03:54:53.405Z,-3.9
2017-01-01T03:55:12.052Z,-3.9
2017-01-01T03:55:30.697Z,-3.9
2017-01-01T03:55:49.342Z,-3.9
2017-01-01T03:56:07.983Z,-3.9
2017-01-01T03:56:26.672Z,-4
2017-01-01T03:56:45.321Z,-4
2017-01-01T03:57:03.969Z,-4
2017-01-01T03:57:22.613Z,-4
2017-01-01T03:57:41.269Z,-4.1
2017-01-01T03:57:59.917Z,-4.1
2017-01-01T03:58:18.567Z,-4.1
2017-01-01T03:58:37.215Z,-4.1
2017-01-01T03:58:55.874Z,-4.1
2017-01-01T03:59:14.518Z,-4.1
2017-01-01T03:59:33.163Z,-4.1
2017-01-01T03:59:51.843Z,-4.1
2017-01-01T04:00:10.481Z,-4.2
2017-01-01T04:00:29.132Z,-4.1
2017-01-01T04:00:47.781Z,-4.1
2017-01-01T04:01:06.425Z,-4.1
2017-01-01T04:01:25.067Z,-4.1
2017-01-01T04:01:43.720Z,-4.1
2017-01-01T04:02:02.366Z,-4.1
2017-01-01T04:02:21.017Z,-4
2017-01-01T04:02:39.667Z,-3.8
2017-01-01T04:02:58.312Z,-3.7
2017-01-01T04:03:16.967Z,-3.7
2017-01-01T04:03:35.612Z,-3.6
2017-01-01T04:03:54.257Z,-3.6
2017-01-01T04:04:12.910Z,-3.6
2017-01-01T04:04:31.582Z,-3.6
2017-01-01T04:04:50.249Z,-3.6
2017-01-01T04:05:08.898Z,-3.6
2017-01-01T04:05:27.543Z,-3.7
2017-01-01T04:05:46.190Z,-3.7
2017-01-01T04:06:04.841Z,-3.7
2017-01-01T04:06:23.489Z,-3.7
2017-01-01T04:06:42.143Z,-3.7
2017-01-01T04:07:00.785Z,-3.7
2017-01-01T04:07:19.439Z,-3.7
2017-01-01T04:07:38.096Z,-3.7
2017-01-01T04:07:56.767Z,-3.7
2017-01-01T04:08:15.417Z,-3.7
2017-01-01T04:08:34.064Z,-3.7
2017-01-01T04:08:52.714Z,-3.6
2017-01-01T04:09:11.359Z,-3.6
2017-01-01T04:09:30.024Z,-3.7
2017-01-01T04:09:48.664Z,-3.7